createdAt,value
2022-07-25T00:00:11.270Z,4.77
2022-07-25T00:02:38.500Z,5.03
2022-07-25T00:05:05.851Z,4.82
2022-07-25T00:07:32.938Z,4.63
2022-07-25T00:10:00.059Z,5.40
2022-07-25T00:12:27.270Z,5.27
2022-07-25T00:14:54.427Z,5.18
2022-07-25T00:17:21.550Z,6.07
2022-07-25T00:19:48.644Z,5.57
2022-07-25T00:22:15.772Z,5.15
2022-07-25T00:24:42.879Z,5.60
2022-07-25T00:27:09.994Z,5.28
2022-07-25T00:29:37.173Z,5.93
2022-07-25T00:32:04.509Z,5.30
2022-07-25T00:34:31.663Z,5.30
2022-07-25T00:36:58.765Z,6.00
2022-07-25T00:39:25.976Z,5.53
2022-07-25T00:41:53.086Z,5.95
2022-07-25T00:44:26.818Z,5.70
2022-07-25T00:46:54.345Z,6.28
2022-07-25T00:49:21.550Z,5.90
2022-07-25T00:51:48.777Z,6.05
2022-07-25T00:54:16.800Z,6.35
2022-07-25T00:56:43.907Z,5.90
2022-07-25T00:59:11.193Z,6.15
2022-07-25T01:01:39.009Z,5.77
2022-07-25T01:04:07.851Z,5.97
2022-07-25T01:06:35.359Z,6.53
2022-07-25T01:09:03.406Z,6.85
2022-07-25T01:11:30.573Z,6.40
2022-07-25T01:13:57.667Z,6.40
2022-07-25T01:16:24.815Z,6.22
2022-07-25T01:18:51.956Z,6.47
2022-07-25T01:21:19.073Z,6.78
2022-07-25T01:26:19.942Z,7.30
2022-07-25T01:28:47.049Z,7.13
2022-07-25T01:31:14.296Z,7.13
2022-07-25T01:33:41.409Z,7.50
2022-07-25T01:36:08.648Z,7.22
2022-07-25T01:38:35.746Z,7.40
2022-07-25T01:41:02.808Z,7.40
2022-07-25T01:43:29.947Z,7.68
2022-07-25T01:45:57.120Z,7.20
2022-07-25T01:48:24.736Z,7.75
2022-07-25T01:50:51.942Z,7.00
2022-07-25T01:53:19.332Z,7.57
2022-07-25T01:55:47.152Z,7.82
2022-07-25T01:58:14.243Z,7.22
2022-07-25T02:00:41.705Z,7.45
2022-07-25T02:03:27.538Z,7.10
2022-07-25T02:05:54.912Z,6.95
2022-07-25T02:08:23.297Z,7.07
2022-07-25T02:10:50.401Z,7.22
2022-07-25T02:13:17.537Z,6.78
2022-07-25T02:15:44.664Z,6.87
2022-07-25T02:18:11.774Z,7.57
2022-07-25T02:20:38.866Z,7.20
2022-07-25T02:23:06.181Z,7.82
2022-07-25T02:25:33.512Z,7.80
2022-07-25T02:28:01.087Z,7.23
2022-07-25T02:30:28.680Z,8.02
2022-07-25T02:32:55.836Z,7.47
2022-07-25T02:35:23.067Z,7.57
2022-07-25T02:37:50.163Z,7.38
2022-07-25T02:40:17.284Z,7.30
2022-07-25T02:42:44.351Z,7.90
2022-07-25T02:45:11.638Z,7.95
2022-07-25T02:47:38.966Z,7.70
2022-07-25T02:50:06.339Z,7.78
2022-07-25T02:52:33.467Z,8.37
2022-07-25T02:55:06.078Z,7.90
2022-07-25T02:57:36.519Z,8.82
2022-07-25T03:00:04.524Z,8.77
2022-07-25T03:02:31.600Z,8.25
2022-07-25T03:04:58.787Z,7.90
2022-07-25T03:07:25.850Z,7.80
2022-07-25T03:09:53.021Z,8.13
2022-07-25T03:12:20.102Z,8.80
2022-07-25T03:14:47.172Z,8.98
2022-07-25T03:17:14.282Z,8.50
2022-07-25T03:19:41.402Z,8.68
2022-07-25T03:22:08.495Z,8.02
2022-07-25T03:24:35.586Z,8.70
2022-07-25T03:27:03.187Z,8.68
2022-07-25T03:29:30.273Z,8.13
2022-07-25T03:31:57.441Z,8.55
2022-07-25T03:34:24.571Z,8.60
2022-07-25T03:36:51.655Z,8.65
2022-07-25T03:39:19.352Z,7.55
2022-07-25T03:41:46.531Z,8.03
2022-07-25T03:44:14.001Z,7.95
2022-07-25T03:46:41.069Z,8.18
2022-07-25T03:49:08.204Z,8.23
2022-07-25T03:51:35.369Z,8.57
2022-07-25T03:54:02.511Z,8.37
2022-07-25T03:56:30.754Z,8.48
2022-07-25T03:58:57.950Z,9.10
2022-07-25T04:01:25.204Z,8.30
2022-07-25T04:03:54.254Z,8.00
2022-07-25T04:06:21.633Z,8.30
2022-07-25T04:08:48.755Z,8.38
2022-07-25T04:11:15.982Z,8.35
2022-07-25T04:13:43.199Z,8.15
2022-07-25T04:16:14.709Z,8.32
2022-07-25T04:18:49.104Z,8.07
2022-07-25T04:21:16.503Z,8.90
2022-07-25T04:23:43.652Z,8.90
2022-07-25T04:26:10.813Z,9.23
2022-07-25T04:28:37.904Z,9.60
2022-07-25T04:31:05.072Z,8.63
2022-07-25T04:33:32.138Z,9.20
2022-07-25T04:35:59.231Z,8.75
2022-07-25T04:38:26.644Z,8.90
2022-07-25T04:40:53.743Z,8.80
2022-07-25T04:43:21.562Z,8.57
2022-07-25T04:45:48.797Z,9.15
2022-07-25T04:48:15.922Z,8.90
2022-07-25T04:50:43.043Z,8.65
2022-07-25T04:53:10.130Z,8.55
2022-07-25T04:55:38.746Z,8.97
2022-07-25T04:58:06.329Z,8.63
2022-07-25T05:00:33.880Z,9.82
2022-07-25T05:03:01.043Z,8.98
2022-07-25T05:05:28.306Z,8.43
2022-07-25T05:08:00.057Z,9.00
2022-07-25T05:10:28.030Z,8.82
2022-07-25T05:12:55.128Z,8.82
2022-07-25T05:15:22.364Z,8.68
2022-07-25T05:17:49.502Z,8.60
2022-07-25T05:20:16.758Z,8.43
2022-07-25T05:22:43.916Z,9.20
2022-07-25T05:25:11.815Z,8.80
2022-07-25T05:27:39.713Z,8.80
2022-07-25T05:30:07.474Z,8.65
2022-07-25T05:32:34.678Z,8.63
2022-07-25T05:35:01.780Z,9.73
2022-07-25T05:37:28.895Z,8.80
2022-07-25T05:39:56.022Z,9.05
2022-07-25T05:42:23.440Z,9.18
2022-07-25T05:44:50.590Z,9.10
2022-07-25T05:47:17.725Z,9.02
2022-07-25T05:49:44.874Z,8.90
2022-07-25T05:52:13.213Z,8.68
2022-07-25T05:54:40.656Z,8.90
2022-07-25T05:57:07.985Z,8.93
2022-07-25T05:59:35.156Z,8.65
2022-07-25T06:02:03.027Z,8.73
2022-07-25T06:04:30.268Z,8.23
2022-07-25T06:06:57.535Z,8.13
2022-07-25T06:09:24.939Z,7.80
2022-07-25T06:12:00.378Z,7.28
2022-07-25T06:14:28.523Z,6.90
2022-07-25T06:16:55.727Z,7.90
2022-07-25T06:19:23.102Z,6.97
2022-07-25T06:21:50.280Z,6.40
2022-07-25T06:24:17.367Z,5.88
2022-07-25T06:26:44.468Z,5.30
2022-07-25T06:29:12.122Z,5.50
2022-07-25T06:31:39.295Z,5.32
2022-07-25T06:34:06.914Z,4.97
2022-07-25T06:36:34.345Z,4.85
2022-07-25T06:39:01.623Z,4.50
2022-07-25T06:41:28.743Z,4.60
2022-07-25T06:43:55.846Z,4.10
2022-07-25T06:46:22.993Z,4.30
2022-07-25T06:48:50.156Z,3.42
2022-07-25T06:51:17.376Z,4.00
2022-07-25T06:53:44.490Z,4.03
2022-07-25T06:56:17.262Z,3.60
2022-07-25T06:58:44.777Z,3.63
2022-07-25T07:01:11.964Z,3.65
2022-07-25T07:03:40.246Z,3.08
2022-07-25T07:06:08.182Z,2.80
2022-07-25T07:08:35.602Z,2.60
2022-07-25T07:11:02.658Z,2.60
2022-07-25T07:13:29.827Z,2.63
2022-07-25T07:15:56.987Z,2.70
2022-07-25T07:18:24.551Z,2.67
2022-07-25T07:20:52.125Z,2.72
2022-07-25T07:23:19.571Z,2.30
2022-07-25T07:25:47.260Z,2.67
2022-07-25T07:28:14.597Z,2.45
2022-07-25T07:31:14.440Z,2.45
2022-07-25T07:33:28.893Z,2.33
2022-07-25T07:35:56.890Z,2.40
2022-07-25T07:38:24.640Z,2.20
2022-07-25T07:40:51.712Z,2.33
2022-07-25T07:43:18.806Z,2.00
2022-07-25T07:45:46.072Z,2.20
2022-07-25T07:48:13.183Z,1.80
2022-07-25T07:50:40.974Z,1.67
2022-07-25T07:53:08.138Z,2.35
2022-07-25T07:55:44.385Z,1.83
2022-07-25T07:58:18.365Z,1.92
2022-07-25T08:00:46.933Z,1.73
2022-07-25T08:03:14.467Z,2.10
2022-07-25T08:05:43.623Z,1.88
2022-07-25T08:08:11.978Z,1.70
2022-07-25T08:10:40.162Z,1.50
2022-07-25T08:13:37.969Z,1.67
2022-07-25T08:16:05.423Z,1.33
2022-07-25T08:18:33.507Z,1.77
2022-07-25T08:21:02.983Z,1.65
2022-07-25T08:23:31.800Z,1.77
2022-07-25T08:25:59.343Z,1.50
2022-07-25T08:28:26.454Z,1.98
2022-07-25T08:30:53.711Z,2.10
2022-07-25T08:33:21.187Z,2.28
2022-07-25T08:35:53.463Z,1.80
2022-07-25T08:38:21.463Z,1.90
2022-07-25T08:40:49.667Z,2.00
2022-07-25T08:43:17.686Z,2.42
2022-07-25T08:45:46.427Z,2.10
2022-07-25T08:48:13.873Z,2.22
2022-07-25T08:50:41.151Z,2.17
2022-07-25T08:55:55.964Z,1.92
2022-07-25T08:58:23.074Z,2.13
2022-07-25T09:00:50.152Z,2.30
2022-07-25T09:03:17.432Z,1.93
2022-07-25T09:05:45.498Z,2.17
2022-07-25T09:08:14.208Z,2.50
2022-07-25T09:10:45.678Z,2.25
2022-07-25T09:13:16.423Z,2.33
2022-07-25T09:15:48.221Z,2.23
2022-07-25T09:18:18.157Z,2.30
2022-07-25T09:20:47.106Z,2.30
2022-07-25T09:23:16.100Z,2.40
2022-07-25T09:25:43.495Z,2.80
2022-07-25T09:28:14.949Z,2.47
2022-07-25T09:30:42.623Z,2.38
2022-07-25T09:33:09.764Z,2.50
2022-07-25T09:35:38.977Z,2.50
2022-07-25T09:38:13.534Z,2.50
2022-07-25T09:40:40.938Z,3.33
2022-07-25T09:43:08.459Z,2.80
2022-07-25T09:45:35.577Z,2.67
2022-07-25T09:48:04.408Z,2.75
2022-07-25T09:50:32.929Z,2.50
2022-07-25T09:53:02.285Z,2.73
2022-07-25T09:55:29.856Z,2.50
2022-07-25T09:57:57.247Z,2.70
2022-07-25T10:00:25.740Z,2.83
2022-07-25T10:02:59.082Z,2.58
2022-07-25T10:05:44.802Z,2.60
2022-07-25T10:08:12.345Z,3.00
2022-07-25T10:10:41.109Z,2.78
2022-07-25T10:13:14.066Z,3.03
2022-07-25T10:15:50.060Z,2.80
2022-07-25T10:18:18.777Z,2.90
2022-07-25T10:20:46.615Z,3.03
2022-07-25T10:23:20.014Z,2.90
2022-07-25T10:25:49.176Z,2.80
2022-07-25T10:28:18.464Z,2.90
2022-07-25T10:30:46.088Z,2.70
2022-07-25T10:33:14.903Z,3.50
2022-07-25T10:35:42.423Z,3.22
2022-07-25T10:38:09.535Z,2.63
2022-07-25T10:40:41.099Z,2.90
2022-07-25T10:43:18.667Z,2.80
2022-07-25T10:45:54.896Z,2.60
2022-07-25T10:48:23.570Z,2.53
2022-07-25T10:50:57.666Z,2.28
2022-07-25T10:53:38.620Z,2.30
2022-07-25T10:56:22.168Z,2.00
2022-07-25T10:58:49.223Z,2.90
2022-07-25T11:01:21.170Z,2.35
2022-07-25T11:03:48.450Z,2.50
2022-07-25T11:06:16.390Z,2.40
2022-07-25T11:08:44.432Z,2.50
2022-07-25T11:11:12.019Z,2.28
2022-07-25T11:13:39.794Z,2.53
2022-07-25T11:16:07.263Z,2.53
2022-07-25T11:18:35.074Z,2.70
2022-07-25T11:21:06.200Z,2.30
2022-07-25T11:23:34.220Z,2.38
2022-07-25T11:26:13.978Z,2.53
2022-07-25T11:28:45.442Z,3.13
2022-07-25T11:31:14.493Z,2.72
2022-07-25T11:33:42.750Z,3.00
2022-07-25T11:36:10.937Z,3.00
2022-07-25T11:38:39.121Z,2.72
2022-07-25T11:41:06.891Z,2.85
2022-07-25T11:43:34.031Z,2.72
2022-07-25T11:46:02.801Z,2.50
2022-07-25T11:48:31.648Z,2.53
2022-07-25T11:50:58.836Z,2.85
2022-07-25T11:53:26.900Z,2.90
2022-07-25T11:55:54.057Z,3.03
2022-07-25T11:58:24.147Z,2.60
2022-07-25T12:00:51.508Z,2.42
2022-07-25T12:03:23.031Z,2.58
2022-07-25T12:05:50.699Z,2.47
2022-07-25T12:08:19.203Z,2.72
2022-07-25T12:10:47.626Z,2.70
2022-07-25T12:13:24.651Z,2.70
2022-07-25T12:15:51.778Z,3.30
2022-07-25T12:18:19.263Z,2.60
2022-07-25T12:20:46.403Z,2.83
2022-07-25T12:23:13.996Z,2.90
2022-07-25T12:25:45.072Z,2.47
2022-07-25T12:28:12.173Z,2.90
2022-07-25T12:30:39.828Z,2.90
2022-07-25T12:33:07.636Z,2.88
2022-07-25T12:35:34.813Z,2.60
2022-07-25T12:38:01.894Z,2.92
2022-07-25T12:40:29.026Z,2.67
2022-07-25T12:42:57.182Z,2.70
2022-07-25T12:45:24.420Z,2.75
2022-07-25T12:47:51.602Z,2.37
2022-07-25T12:50:19.356Z,2.38
2022-07-25T12:52:46.799Z,2.30
2022-07-25T12:55:18.554Z,2.60
2022-07-25T12:57:46.177Z,2.30
2022-07-25T13:00:15.310Z,2.70
2022-07-25T13:02:42.773Z,2.30
2022-07-25T13:05:10.304Z,2.90
2022-07-25T13:07:37.590Z,2.70
2022-07-25T13:10:04.990Z,2.53
2022-07-25T13:12:32.143Z,2.50
2022-07-25T13:14:59.734Z,2.50
2022-07-25T13:17:27.914Z,2.90
2022-07-25T13:19:55.915Z,2.60
2022-07-25T13:22:23.052Z,3.03
2022-07-25T13:24:50.146Z,2.90
2022-07-25T13:27:19.007Z,2.92
2022-07-25T13:29:47.002Z,3.30
2022-07-25T13:32:14.395Z,3.10
2022-07-25T13:34:41.542Z,2.70
2022-07-25T13:37:09.277Z,2.77
2022-07-25T13:39:38.289Z,2.42
2022-07-25T13:42:05.490Z,2.28
2022-07-25T13:44:32.609Z,2.15
2022-07-25T13:46:59.723Z,2.30
2022-07-25T13:49:26.984Z,2.27
2022-07-25T13:51:54.079Z,2.22
2022-07-25T13:54:21.163Z,2.00
2022-07-25T13:56:48.305Z,1.98
2022-07-25T13:59:20.964Z,1.90
2022-07-25T14:01:48.793Z,2.30
2022-07-25T14:04:15.960Z,2.08
2022-07-25T14:06:43.116Z,2.10
2022-07-25T14:09:10.683Z,2.20
2022-07-25T14:11:38.054Z,2.28
2022-07-25T14:14:05.150Z,2.10
2022-07-25T14:16:33.664Z,2.17
2022-07-25T14:19:01.946Z,2.00
2022-07-25T14:21:29.049Z,2.10
2022-07-25T14:23:56.107Z,2.03
2022-07-25T14:26:23.253Z,1.90
2022-07-25T14:28:50.633Z,2.05
2022-07-25T14:31:17.889Z,1.70
2022-07-25T14:33:45.147Z,1.80
2022-07-25T14:36:12.746Z,1.85
2022-07-25T14:38:39.886Z,1.70
2022-07-25T14:41:12.528Z,1.73
2022-07-25T14:43:40.500Z,1.50
2022-07-25T14:46:08.237Z,1.35
2022-07-25T14:48:38.793Z,1.48
2022-07-25T14:51:06.390Z,1.30
2022-07-25T14:53:33.849Z,1.58
2022-07-25T14:56:00.977Z,1.55
2022-07-25T14:58:28.116Z,1.67
2022-07-25T15:00:55.327Z,1.70
2022-07-25T15:03:22.526Z,1.60
2022-07-25T15:05:49.674Z,1.65
2022-07-25T15:08:16.931Z,1.70
2022-07-25T15:10:44.068Z,1.80
2022-07-25T15:13:30.508Z,1.63
2022-07-25T15:15:58.558Z,1.60
2022-07-25T15:18:25.834Z,1.60
2022-07-25T15:20:52.982Z,1.70
2022-07-25T15:23:20.986Z,1.40
2022-07-25T15:26:04.409Z,1.75
2022-07-25T15:28:33.513Z,1.33
2022-07-25T15:31:01.057Z,1.55
2022-07-25T15:33:28.325Z,1.70
2022-07-25T15:35:55.580Z,1.52
2022-07-25T15:38:22.882Z,1.60
2022-07-25T15:40:49.999Z,1.50
2022-07-25T15:43:17.131Z,1.60
2022-07-25T15:45:45.839Z,2.00
2022-07-25T15:48:13.914Z,1.67
2022-07-25T15:50:43.134Z,1.60
2022-07-25T15:53:11.036Z,1.30
2022-07-25T15:55:38.641Z,1.60
2022-07-25T15:58:05.929Z,1.58
2022-07-25T16:00:33.866Z,1.77
2022-07-25T16:03:01.019Z,1.50
2022-07-25T16:05:28.231Z,1.60
2022-07-25T16:07:55.349Z,1.17
2022-07-25T16:10:22.836Z,1.50
2022-07-25T16:12:49.955Z,1.25
2022-07-25T16:15:17.052Z,1.50
2022-07-25T16:17:44.138Z,1.60
2022-07-25T16:20:11.687Z,1.42
2022-07-25T16:22:39.401Z,1.25
2022-07-25T16:25:06.643Z,1.73
2022-07-25T16:27:33.838Z,1.77
2022-07-25T16:30:01.564Z,1.53
2022-07-25T16:32:28.673Z,1.40
2022-07-25T16:34:55.757Z,1.50
2022-07-25T16:37:22.823Z,1.67
2022-07-25T16:39:49.966Z,1.50
2022-07-25T16:42:17.175Z,1.87
2022-07-25T16:44:44.334Z,1.65
2022-07-25T16:47:11.691Z,1.73
2022-07-25T16:49:38.783Z,1.30
2022-07-25T16:52:05.998Z,1.30
2022-07-25T16:54:33.562Z,1.70
2022-07-25T16:57:01.200Z,1.80
2022-07-25T16:59:28.305Z,1.58
2022-07-25T17:01:55.471Z,1.50
2022-07-25T17:04:22.707Z,1.45
2022-07-25T17:06:49.935Z,1.40
2022-07-25T17:09:17.137Z,1.77
2022-07-25T17:11:44.198Z,1.50
2022-07-25T17:14:11.367Z,1.40
2022-07-25T17:16:38.663Z,1.35
2022-07-25T17:19:06.152Z,1.67
2022-07-25T17:21:33.394Z,1.80
2022-07-25T17:24:00.476Z,1.85
2022-07-25T17:26:27.559Z,2.00
2022-07-25T17:28:55.440Z,1.70
2022-07-25T17:31:24.197Z,1.60
2022-07-25T17:33:51.484Z,1.77
2022-07-25T17:36:19.326Z,2.00
2022-07-25T17:38:46.587Z,1.90
2022-07-25T17:41:13.719Z,1.73
2022-07-25T17:43:40.971Z,1.80
2022-07-25T17:46:10.884Z,1.60
2022-07-25T17:48:38.118Z,1.75
2022-07-25T17:51:06.104Z,1.10
2022-07-25T17:53:33.316Z,1.42
2022-07-25T17:56:00.461Z,1.43
2022-07-25T17:58:27.544Z,1.50
2022-07-25T18:00:59.562Z,1.40
2022-07-25T18:03:28.270Z,1.23
2022-07-25T18:05:56.200Z,1.25
2022-07-25T18:08:23.336Z,1.53
2022-07-25T18:10:50.524Z,1.40
2022-07-25T18:13:18.548Z,1.40
2022-07-25T18:15:46.275Z,1.23
2022-07-25T18:18:17.004Z,1.60
2022-07-25T18:20:47.443Z,1.40
2022-07-25T18:23:14.548Z,1.50
2022-07-25T18:25:41.631Z,1.30
2022-07-25T18:28:08.725Z,1.40
2022-07-25T18:30:37.190Z,1.55
2022-07-25T18:33:04.279Z,1.50
2022-07-25T18:35:31.378Z,1.60
2022-07-25T18:37:58.467Z,1.30
2022-07-25T18:40:25.575Z,1.40
2022-07-25T18:42:52.718Z,1.55
2022-07-25T18:45:20.430Z,1.30
2022-07-25T18:47:48.813Z,1.42
2022-07-25T18:50:15.931Z,1.23
2022-07-25T18:52:43.098Z,1.40
2022-07-25T18:55:10.382Z,1.55
2022-07-25T18:57:37.750Z,1.83
2022-07-25T19:00:06.685Z,1.60
2022-07-25T19:02:33.954Z,1.70
2022-07-25T19:05:01.567Z,1.50
2022-07-25T19:07:31.070Z,1.45
2022-07-25T19:09:58.147Z,1.53
2022-07-25T19:12:27.132Z,1.80
2022-07-25T19:14:54.933Z,1.77
2022-07-25T19:17:23.544Z,1.67
2022-07-25T19:19:51.724Z,1.60
2022-07-25T19:22:18.840Z,1.60
2022-07-25T19:24:45.968Z,1.55
2022-07-25T19:27:13.347Z,1.50
2022-07-25T19:29:42.043Z,1.75
2022-07-25T19:32:09.117Z,1.77
2022-07-25T19:34:36.232Z,1.70
2022-07-25T19:37:03.891Z,1.63
2022-07-25T19:39:31.057Z,1.90
2022-07-25T19:41:58.223Z,1.98
2022-07-25T19:44:25.355Z,2.33
2022-07-25T19:46:54.175Z,1.70
2022-07-25T19:49:21.284Z,2.08
2022-07-25T19:51:48.433Z,2.13
2022-07-25T19:54:15.510Z,1.83
2022-07-25T19:56:42.592Z,1.90
2022-07-25T19:59:09.703Z,2.03
2022-07-25T20:01:39.194Z,1.80
2022-07-25T20:04:08.803Z,2.20
2022-07-25T20:06:36.544Z,2.45
2022-07-25T20:09:04.645Z,1.90
2022-07-25T20:11:32.085Z,2.00
2022-07-25T20:13:59.194Z,2.05
2022-07-25T20:16:26.331Z,1.92
2022-07-25T20:18:53.493Z,2.10
2022-07-25T20:21:20.902Z,2.10
2022-07-25T20:23:48.069Z,1.73
2022-07-25T20:26:15.175Z,1.90
2022-07-25T20:28:42.339Z,2.10
2022-07-25T20:31:09.503Z,2.00
2022-07-25T20:33:36.668Z,2.08
2022-07-25T20:36:04.113Z,1.90
2022-07-25T20:38:32.328Z,2.10
2022-07-25T20:40:59.978Z,1.98
2022-07-25T20:43:28.550Z,2.00
2022-07-25T20:45:55.699Z,2.30
2022-07-25T20:48:22.948Z,2.43
2022-07-25T20:50:50.267Z,2.00
2022-07-25T20:53:17.517Z,2.22
2022-07-25T20:55:44.888Z,2.22
2022-07-25T20:58:12.103Z,2.40
2022-07-25T21:00:39.219Z,2.27
2022-07-25T21:03:08.217Z,2.30
2022-07-25T21:05:37.565Z,2.33
2022-07-25T21:08:05.329Z,2.25
2022-07-25T21:10:32.478Z,2.20
2022-07-25T21:12:59.664Z,2.03
2022-07-25T21:15:26.726Z,2.10
2022-07-25T21:17:53.830Z,2.17
2022-07-25T21:20:20.963Z,2.38
2022-07-25T21:22:48.068Z,2.72
2022-07-25T21:25:15.655Z,2.20
2022-07-25T21:27:42.871Z,2.13
2022-07-25T21:30:11.159Z,2.40
2022-07-25T21:32:39.255Z,2.58
2022-07-25T21:35:06.560Z,2.75
2022-07-25T21:37:33.821Z,2.77
2022-07-25T21:40:00.972Z,2.40
2022-07-25T21:42:28.056Z,2.65
2022-07-25T21:44:55.168Z,2.40
2022-07-25T21:47:22.255Z,2.38
2022-07-25T21:50:08.289Z,2.60
2022-07-25T21:52:35.440Z,2.47
2022-07-25T21:55:03.399Z,2.35
2022-07-25T21:57:30.538Z,2.67
2022-07-25T21:59:57.617Z,2.15
2022-07-25T22:02:24.732Z,2.23
2022-07-25T22:04:51.903Z,2.67
2022-07-25T22:07:19.017Z,2.50
2022-07-25T22:09:46.519Z,2.25
2022-07-25T22:12:13.656Z,2.90
2022-07-25T22:14:40.740Z,2.97
2022-07-25T22:17:08.340Z,2.65
2022-07-25T22:19:35.489Z,2.75
2022-07-25T22:22:03.830Z,2.38
2022-07-25T22:24:30.910Z,2.50
2022-07-25T22:26:58.004Z,2.63
2022-07-25T22:29:25.128Z,2.40
2022-07-25T22:31:52.402Z,2.50
2022-07-25T22:34:19.636Z,2.50
2022-07-25T22:36:46.690Z,2.70
2022-07-25T22:39:13.814Z,2.40
2022-07-25T22:41:40.882Z,2.75
2022-07-25T22:44:07.994Z,2.43
2022-07-25T22:46:35.103Z,2.50
2022-07-25T22:49:02.347Z,2.90
2022-07-25T22:51:29.886Z,2.60
2022-07-25T22:53:57.728Z,2.38
2022-07-25T22:56:25.333Z,2.53
2022-07-25T22:58:52.506Z,2.45
2022-07-25T23:01:20.080Z,2.63
2022-07-25T23:03:49.834Z,2.38
2022-07-25T23:06:17.927Z,2.42
2022-07-25T23:08:45.044Z,2.50
2022-07-25T23:11:12.368Z,2.55
2022-07-25T23:13:39.545Z,2.60
2022-07-25T23:16:10.311Z,2.50
2022-07-25T23:18:38.020Z,2.40
2022-07-25T23:21:05.347Z,3.23
2022-07-25T23:23:32.623Z,2.30
2022-07-25T23:25:59.779Z,2.83
2022-07-25T23:28:26.954Z,2.60
2022-07-25T23:30:54.125Z,2.40
2022-07-25T23:33:25.462Z,2.50
2022-07-25T23:35:53.299Z,2.78
2022-07-25T23:38:20.495Z,2.90
2022-07-25T23:40:47.663Z,2.33
2022-07-25T23:43:15.152Z,2.78
2022-07-25T23:45:50.678Z,2.70
2022-07-25T23:48:18.319Z,2.53
2022-07-25T23:50:45.472Z,2.50
2022-07-25T23:53:12.587Z,2.83
2022-07-25T23:55:39.727Z,2.80
2022-07-25T23:58:06.967Z,3.13
